createdAt,value
2024-05-09T00:00:01.335Z,26.75
2024-05-09T00:01:11.591Z,29.00
2024-05-09T00:02:13.825Z,28.58
2024-05-09T00:03:16.168Z,27.52
2024-05-09T00:04:18.611Z,27.85
2024-05-09T00:05:20.969Z,27.02
2024-05-09T00:06:23.324Z,28.25
2024-05-09T00:07:25.521Z,26.40
2024-05-09T00:08:27.742Z,28.63
2024-05-09T00:09:29.996Z,26.05
2024-05-09T00:10:36.752Z,26.08
2024-05-09T00:11:40.944Z,27.02
2024-05-09T00:12:43.216Z,26.65
2024-05-09T00:13:45.485Z,28.67
2024-05-09T00:14:47.777Z,26.80
2024-05-09T00:15:50.019Z,25.83
2024-05-09T00:16:52.260Z,26.15
2024-05-09T00:17:54.683Z,24.75
2024-05-09T00:18:57.037Z,23.95
2024-05-09T00:19:59.278Z,25.65
2024-05-09T00:21:01.590Z,25.42
2024-05-09T00:22:04.029Z,24.42
2024-05-09T00:23:09.480Z,24.13
2024-05-09T00:24:11.853Z,25.05
2024-05-09T00:25:14.111Z,25.85
2024-05-09T00:26:19.720Z,25.88
2024-05-09T00:27:22.725Z,27.70
2024-05-09T00:28:25.845Z,27.20
2024-05-09T00:29:28.150Z,26.55
2024-05-09T00:30:35.129Z,27.45
2024-05-09T00:31:39.023Z,29.15
2024-05-09T00:32:41.327Z,24.38
2024-05-09T00:33:43.834Z,26.80
2024-05-09T00:34:46.499Z,27.25
2024-05-09T00:35:48.722Z,26.52
2024-05-09T00:36:50.975Z,28.77
2024-05-09T00:37:53.213Z,28.52
2024-05-09T00:38:55.442Z,28.15
2024-05-09T00:39:57.616Z,28.90
2024-05-09T00:40:59.827Z,28.63
2024-05-09T00:42:02.074Z,27.77
2024-05-09T00:43:04.410Z,26.20
2024-05-09T00:44:06.745Z,30.75
2024-05-09T00:45:09.011Z,26.33
2024-05-09T00:46:11.259Z,31.02
2024-05-09T00:47:13.638Z,26.73
2024-05-09T00:48:19.885Z,27.17
2024-05-09T00:49:24.793Z,27.33
2024-05-09T00:50:35.523Z,29.30
2024-05-09T00:51:43.047Z,28.88
2024-05-09T00:52:47.630Z,30.80
2024-05-09T00:53:50.031Z,30.30
2024-05-09T00:54:52.450Z,28.38
2024-05-09T00:55:56.493Z,26.48
2024-05-09T00:56:58.716Z,31.23
2024-05-09T00:58:01.563Z,26.95
2024-05-09T00:59:04.597Z,29.45
2024-05-09T01:00:18.464Z,31.58
2024-05-09T01:01:29.690Z,32.05
2024-05-09T01:02:32.597Z,29.65
2024-05-09T01:03:35.120Z,32.80
2024-05-09T01:04:37.649Z,27.98
2024-05-09T01:05:40.334Z,27.55
2024-05-09T01:06:43.334Z,31.15
2024-05-09T01:07:45.592Z,28.58
2024-05-09T01:08:48.072Z,30.20
2024-05-09T01:09:50.345Z,29.15
2024-05-09T01:10:52.719Z,36.17
2024-05-09T01:11:55.069Z,28.75
2024-05-09T01:12:57.361Z,27.77
2024-05-09T01:13:59.552Z,26.92
2024-05-09T01:15:01.829Z,28.55
2024-05-09T01:16:04.528Z,26.15
2024-05-09T01:17:07.479Z,31.13
2024-05-09T01:18:14.083Z,27.05
2024-05-09T01:19:26.722Z,28.73
2024-05-09T01:20:39.526Z,29.08
2024-05-09T01:21:44.858Z,34.03
2024-05-09T01:22:47.800Z,27.90
2024-05-09T01:23:50.113Z,31.70
2024-05-09T01:24:52.754Z,28.75
2024-05-09T01:25:55.017Z,26.85
2024-05-09T01:26:57.241Z,27.58
2024-05-09T01:27:59.809Z,27.98
2024-05-09T01:29:02.076Z,28.55
2024-05-09T01:30:09.139Z,30.38
2024-05-09T01:31:15.979Z,27.35
2024-05-09T01:32:18.233Z,26.65
2024-05-09T01:33:20.727Z,26.67
2024-05-09T01:34:23.012Z,27.00
2024-05-09T01:35:25.460Z,25.17
2024-05-09T01:36:27.869Z,25.67
2024-05-09T01:37:30.076Z,26.92
2024-05-09T01:38:32.408Z,26.52
2024-05-09T01:39:34.733Z,26.77
2024-05-09T01:40:39.687Z,26.13
2024-05-09T01:41:44.325Z,27.63
2024-05-09T01:42:46.520Z,28.13
2024-05-09T01:43:48.809Z,29.23
2024-05-09T01:44:51.180Z,27.33
2024-05-09T01:45:53.429Z,25.88
2024-05-09T01:46:55.683Z,26.23
2024-05-09T01:47:58.295Z,25.40
2024-05-09T01:49:00.842Z,25.52
2024-05-09T01:50:06.790Z,26.55
2024-05-09T01:51:11.531Z,27.67
2024-05-09T01:52:13.839Z,33.90
2024-05-09T01:53:16.205Z,31.25
2024-05-09T01:54:18.509Z,26.90
2024-05-09T01:55:20.743Z,37.78
2024-05-09T01:56:26.632Z,38.45
2024-05-09T01:57:28.853Z,34.05
2024-05-09T01:58:31.933Z,35.30
2024-05-09T01:59:34.164Z,35.92
2024-05-09T02:00:40.475Z,33.40
2024-05-09T02:01:56.360Z,31.23
2024-05-09T02:03:00.103Z,35.38
2024-05-09T02:04:02.731Z,33.28
2024-05-09T02:05:05.907Z,35.35
2024-05-09T02:06:08.516Z,27.92
2024-05-09T02:07:10.878Z,28.60
2024-05-09T02:08:18.302Z,33.17
2024-05-09T02:09:20.901Z,37.22
2024-05-09T02:10:30.172Z,36.17
2024-05-09T02:11:43.522Z,33.00
2024-05-09T02:12:45.806Z,29.63
2024-05-09T02:13:48.070Z,29.05
2024-05-09T02:14:51.704Z,36.65
2024-05-09T02:15:53.895Z,33.25
2024-05-09T02:16:56.171Z,30.35
2024-05-09T02:17:58.502Z,28.85
2024-05-09T02:19:00.881Z,29.60
2024-05-09T02:20:03.686Z,34.65
2024-05-09T02:21:09.729Z,33.17
2024-05-09T02:22:12.024Z,38.95
2024-05-09T02:23:14.415Z,33.20
2024-05-09T02:24:16.735Z,34.83
2024-05-09T02:25:20.962Z,34.20
2024-05-09T02:26:23.487Z,31.55
2024-05-09T02:27:25.775Z,30.50
2024-05-09T02:28:27.986Z,30.77
2024-05-09T02:29:30.511Z,31.27
2024-05-09T02:30:39.976Z,34.13
2024-05-09T02:31:45.036Z,32.50
2024-05-09T02:32:47.484Z,30.38
2024-05-09T02:33:50.106Z,28.17
2024-05-09T02:34:52.669Z,26.30
2024-05-09T02:35:54.886Z,26.88
2024-05-09T02:36:57.111Z,27.25
2024-05-09T02:37:59.353Z,31.13
2024-05-09T02:39:01.717Z,38.22
2024-05-09T02:40:05.617Z,31.15
2024-05-09T02:41:09.263Z,35.65
2024-05-09T02:42:11.609Z,35.03
2024-05-09T02:43:13.924Z,37.30
2024-05-09T02:44:16.129Z,35.38
2024-05-09T02:45:18.367Z,37.15
2024-05-09T02:46:20.549Z,35.33
2024-05-09T02:47:22.922Z,44.35
2024-05-09T02:48:25.425Z,38.00
2024-05-09T02:49:27.917Z,33.30
2024-05-09T02:50:37.299Z,37.35
2024-05-09T02:51:41.868Z,33.22
2024-05-09T02:52:44.037Z,36.40
2024-05-09T02:53:46.230Z,31.23
2024-05-09T02:54:48.477Z,29.88
2024-05-09T02:55:51.423Z,29.40
2024-05-09T02:56:53.589Z,32.50
2024-05-09T02:57:55.799Z,28.60
2024-05-09T02:58:58.005Z,27.45
2024-05-09T03:00:00.289Z,28.10
2024-05-09T03:01:02.570Z,29.85
2024-05-09T03:02:05.071Z,28.80
2024-05-09T03:03:08.988Z,30.30
2024-05-09T03:04:12.441Z,36.90
2024-05-09T03:05:14.738Z,28.40
2024-05-09T03:06:17.035Z,27.25
2024-05-09T03:07:20.264Z,27.38
2024-05-09T03:08:22.670Z,25.85
2024-05-09T03:09:24.952Z,27.13
2024-05-09T03:10:29.160Z,27.13
2024-05-09T03:11:37.362Z,27.30
2024-05-09T03:12:39.925Z,25.02
2024-05-09T03:13:42.237Z,25.88
2024-05-09T03:14:44.394Z,25.85
2024-05-09T03:15:46.784Z,26.58
2024-05-09T03:16:49.016Z,26.58
2024-05-09T03:17:51.422Z,26.10
2024-05-09T03:18:57.008Z,25.98
2024-05-09T03:19:59.710Z,26.73
2024-05-09T03:21:02.335Z,28.73
2024-05-09T03:22:04.739Z,27.02
2024-05-09T03:23:09.340Z,27.05
2024-05-09T03:24:12.439Z,27.58
2024-05-09T03:25:14.871Z,27.27
2024-05-09T03:26:19.444Z,26.95
2024-05-09T03:27:21.790Z,27.65
2024-05-09T03:28:23.964Z,27.45
2024-05-09T03:29:26.306Z,27.02
2024-05-09T03:30:38.919Z,28.38
2024-05-09T03:31:44.660Z,27.50
2024-05-09T03:32:47.073Z,28.77
2024-05-09T03:33:49.532Z,27.73
2024-05-09T03:34:51.835Z,27.77
2024-05-09T03:35:54.182Z,35.95
2024-05-09T03:36:56.446Z,33.95
2024-05-09T03:37:58.627Z,45.30
2024-05-09T03:39:00.918Z,27.33
2024-05-09T03:40:05.567Z,29.52
2024-05-09T03:41:09.714Z,27.48
2024-05-09T03:42:11.972Z,27.92
2024-05-09T03:43:14.767Z,29.35
2024-05-09T03:44:18.176Z,27.95
2024-05-09T03:45:20.364Z,20.52
2024-05-09T03:46:22.548Z,21.58
2024-05-09T03:47:24.941Z,20.80
2024-05-09T03:48:27.396Z,20.55
2024-05-09T03:49:29.882Z,21.83
2024-05-09T03:50:35.570Z,23.65
2024-05-09T03:51:38.797Z,25.58
2024-05-09T03:52:41.170Z,23.58
2024-05-09T03:53:43.359Z,23.13
2024-05-09T03:54:49.274Z,25.17
2024-05-09T03:55:51.534Z,27.48
2024-05-09T03:56:54.379Z,35.72
2024-05-09T03:57:56.885Z,24.85
2024-05-09T03:58:59.189Z,28.08
2024-05-09T04:00:01.576Z,28.52
2024-05-09T04:01:06.811Z,24.92
2024-05-09T04:02:09.073Z,24.65
2024-05-09T04:03:12.827Z,22.95
2024-05-09T04:04:16.005Z,24.42
2024-05-09T04:05:18.243Z,24.95
2024-05-09T04:06:23.339Z,24.55
2024-05-09T04:07:25.507Z,23.50
2024-05-09T04:08:27.702Z,23.85
2024-05-09T04:09:29.928Z,26.55
2024-05-09T04:10:34.211Z,23.75
2024-05-09T04:11:37.466Z,26.05
2024-05-09T04:12:39.820Z,33.08
2024-05-09T04:13:42.156Z,26.92
2024-05-09T04:14:44.388Z,28.33
2024-05-09T04:15:46.707Z,25.52
2024-05-09T04:16:49.058Z,25.50
2024-05-09T04:17:51.763Z,24.52
2024-05-09T04:18:54.227Z,23.13
2024-05-09T04:19:56.525Z,22.75
2024-05-09T04:20:59.539Z,22.90
2024-05-09T04:22:02.191Z,25.42
2024-05-09T04:23:05.102Z,20.13
2024-05-09T04:24:07.321Z,21.30
2024-05-09T04:25:09.540Z,15.57
2024-05-09T04:26:13.962Z,16.38
2024-05-09T04:27:16.244Z,15.43
2024-05-09T04:28:19.957Z,16.33
2024-05-09T04:29:22.209Z,15.25
2024-05-09T04:30:34.394Z,20.60
2024-05-09T04:31:41.060Z,17.98
2024-05-09T04:32:43.869Z,18.15
2024-05-09T04:33:46.726Z,19.65
2024-05-09T04:34:49.034Z,17.73
2024-05-09T04:35:51.396Z,19.95
2024-05-09T04:36:53.609Z,22.67
2024-05-09T04:37:55.971Z,22.23
2024-05-09T04:38:58.305Z,23.67
2024-05-09T04:40:00.619Z,22.77
2024-05-09T04:41:02.854Z,23.98
2024-05-09T04:42:05.556Z,25.10
2024-05-09T04:43:16.129Z,24.60
2024-05-09T04:44:18.588Z,21.50
2024-05-09T04:45:20.928Z,23.30
2024-05-09T04:46:23.128Z,20.70
2024-05-09T04:47:25.386Z,20.23
2024-05-09T04:48:27.889Z,21.55
2024-05-09T04:49:30.720Z,22.15
2024-05-09T04:50:37.129Z,23.90
2024-05-09T04:51:44.277Z,25.75
2024-05-09T04:52:46.605Z,24.17
2024-05-09T04:53:48.970Z,28.80
2024-05-09T04:54:54.048Z,30.17
2024-05-09T04:55:56.904Z,31.20
2024-05-09T04:56:59.127Z,30.33
2024-05-09T04:58:01.853Z,31.42
2024-05-09T04:59:04.122Z,29.77
2024-05-09T05:00:11.558Z,29.55
2024-05-09T05:01:17.006Z,31.55
2024-05-09T05:02:19.350Z,32.15
2024-05-09T05:03:22.060Z,29.67
2024-05-09T05:04:24.995Z,30.55
2024-05-09T05:05:27.227Z,30.92
2024-05-09T05:06:30.267Z,31.73
2024-05-09T05:07:32.459Z,32.33
2024-05-09T05:08:35.110Z,32.60
2024-05-09T05:09:37.375Z,32.75
2024-05-09T05:10:39.559Z,31.90
2024-05-09T05:11:42.226Z,33.15
2024-05-09T05:13:03.440Z,33.10
2024-05-09T05:15:09.133Z,37.00
2024-05-09T05:16:11.290Z,40.20
2024-05-09T05:17:13.564Z,42.67
2024-05-09T05:18:16.534Z,45.30
2024-05-09T05:19:18.990Z,41.42
2024-05-09T05:20:27.575Z,43.17
2024-05-09T05:21:35.244Z,41.00
2024-05-09T05:22:37.442Z,42.10
2024-05-09T05:23:41.125Z,46.72
2024-05-09T05:24:43.626Z,48.72
2024-05-09T05:25:47.966Z,44.40
2024-05-09T05:26:50.382Z,42.38
2024-05-09T05:27:52.722Z,38.88
2024-05-09T05:28:55.144Z,41.05
2024-05-09T05:29:57.567Z,40.35
2024-05-09T05:30:59.966Z,35.88
2024-05-09T05:32:02.367Z,42.88
2024-05-09T05:33:06.257Z,38.50
2024-05-09T05:34:08.798Z,39.33
2024-05-09T05:35:11.104Z,36.03
2024-05-09T05:36:13.365Z,35.17
2024-05-09T05:37:15.532Z,36.83
2024-05-09T05:38:17.977Z,39.85
2024-05-09T05:39:20.279Z,36.05
2024-05-09T05:40:28.710Z,35.30
2024-05-09T05:41:38.160Z,38.90
2024-05-09T05:42:40.360Z,42.25
2024-05-09T05:43:42.558Z,39.25
2024-05-09T05:44:44.845Z,36.20
2024-05-09T05:45:47.358Z,38.97
2024-05-09T05:46:50.934Z,40.30
2024-05-09T05:47:55.152Z,41.17
2024-05-09T05:48:57.616Z,39.65
2024-05-09T05:49:59.936Z,42.65
2024-05-09T05:51:04.311Z,39.97
2024-05-09T05:52:07.402Z,42.80
2024-05-09T05:53:10.636Z,37.63
2024-05-09T05:54:12.998Z,41.28
2024-05-09T05:55:15.197Z,39.85
2024-05-09T05:56:17.418Z,41.95
2024-05-09T05:57:19.867Z,38.95
2024-05-09T05:58:22.567Z,38.72
2024-05-09T05:59:24.954Z,38.45
2024-05-09T06:00:34.410Z,42.35
2024-05-09T06:01:40.286Z,39.25
2024-05-09T06:02:42.652Z,41.83
2024-05-09T06:03:45.064Z,41.90
2024-05-09T06:04:47.510Z,39.22
2024-05-09T06:05:49.902Z,41.72
2024-05-09T06:06:52.810Z,41.58
2024-05-09T06:07:55.105Z,41.40
2024-05-09T06:08:57.348Z,40.72
2024-05-09T06:09:59.502Z,38.35
2024-05-09T06:11:01.950Z,39.05
2024-05-09T06:12:04.960Z,37.10
2024-05-09T06:13:07.831Z,35.03
2024-05-09T06:14:10.113Z,40.58
2024-05-09T06:15:12.373Z,39.00
2024-05-09T06:16:14.527Z,39.75
2024-05-09T06:17:17.016Z,39.13
2024-05-09T06:18:19.770Z,41.10
2024-05-09T06:19:22.415Z,38.65
2024-05-09T06:20:34.299Z,38.78
2024-05-09T06:21:39.248Z,39.47
2024-05-09T06:22:41.489Z,37.30
2024-05-09T06:23:48.118Z,37.63
2024-05-09T06:24:50.297Z,35.45
2024-05-09T06:25:52.592Z,37.88
2024-05-09T06:26:54.849Z,37.67
2024-05-09T06:27:57.026Z,38.65
2024-05-09T06:29:01.598Z,35.80
2024-05-09T06:30:05.186Z,39.22
2024-05-09T06:31:07.554Z,36.38
2024-05-09T06:32:10.025Z,37.15
2024-05-09T06:33:14.576Z,35.85
2024-05-09T06:34:21.750Z,37.65
2024-05-09T06:35:24.013Z,35.92
2024-05-09T06:36:26.210Z,35.13
2024-05-09T06:37:28.460Z,35.72
2024-05-09T06:38:30.739Z,36.55
2024-05-09T06:39:32.970Z,37.30
2024-05-09T06:40:38.527Z,35.03
2024-05-09T06:41:42.410Z,32.00
2024-05-09T06:42:44.706Z,32.50
2024-05-09T06:43:46.985Z,34.00
2024-05-09T06:44:49.227Z,33.33
2024-05-09T06:45:53.790Z,33.28
2024-05-09T06:46:59.389Z,34.50
2024-05-09T06:48:03.008Z,33.13
2024-05-09T06:49:08.457Z,34.40
2024-05-09T06:50:16.506Z,31.83
2024-05-09T06:51:25.683Z,31.95
2024-05-09T06:52:27.870Z,30.98
2024-05-09T06:53:30.112Z,30.88
2024-05-09T06:54:32.317Z,30.13
2024-05-09T06:55:34.563Z,31.40
2024-05-09T06:56:37.813Z,30.08
2024-05-09T06:57:42.955Z,29.42
2024-05-09T06:58:45.340Z,27.85
2024-05-09T06:59:47.591Z,28.40
2024-05-09T07:00:49.933Z,27.83
2024-05-09T07:01:52.709Z,26.80
2024-05-09T07:02:55.061Z,26.60
2024-05-09T07:03:57.497Z,25.33
2024-05-09T07:04:59.927Z,25.92
2024-05-09T07:06:02.243Z,27.65
2024-05-09T07:07:07.218Z,27.48
2024-05-09T07:08:09.538Z,26.25
2024-05-09T07:09:11.839Z,27.00
2024-05-09T07:10:21.935Z,27.13
2024-05-09T07:11:31.691Z,27.77
2024-05-09T07:12:34.151Z,27.30
2024-05-09T07:13:36.419Z,26.42
2024-05-09T07:14:38.839Z,25.10
2024-05-09T07:15:42.467Z,24.73
2024-05-09T07:16:44.962Z,26.77
2024-05-09T07:17:48.003Z,25.02
2024-05-09T07:18:55.126Z,23.63
2024-05-09T07:19:57.567Z,25.50
2024-05-09T07:20:59.954Z,23.33
2024-05-09T07:22:02.204Z,24.00
2024-05-09T07:23:04.671Z,23.13
2024-05-09T07:24:06.940Z,24.55
2024-05-09T07:25:09.163Z,23.52
2024-05-09T07:26:11.485Z,23.88
2024-05-09T07:27:14.052Z,24.88
2024-05-09T07:28:18.049Z,24.23
2024-05-09T07:29:20.405Z,24.67
2024-05-09T07:30:27.756Z,23.17
2024-05-09T07:31:35.378Z,24.33
2024-05-09T07:32:37.733Z,25.05
2024-05-09T07:33:40.099Z,23.85
2024-05-09T07:34:42.432Z,24.42
2024-05-09T07:35:44.913Z,23.73
2024-05-09T07:36:47.223Z,22.90
2024-05-09T07:37:50.195Z,24.23
2024-05-09T07:38:52.467Z,22.95
2024-05-09T07:39:55.022Z,23.50
2024-05-09T07:40:57.243Z,23.27
2024-05-09T07:41:59.487Z,22.33
2024-05-09T07:43:03.925Z,22.30
2024-05-09T07:44:06.153Z,22.85
2024-05-09T07:45:29.552Z,21.80
2024-05-09T07:47:37.005Z,23.90
2024-05-09T07:53:42.100Z,22.70
2024-05-09T07:54:48.073Z,18.95
2024-05-09T07:55:50.563Z,21.02
2024-05-09T07:56:53.153Z,22.25
2024-05-09T07:57:55.616Z,21.88
2024-05-09T07:58:57.898Z,22.20
2024-05-09T08:00:00.205Z,21.13
2024-05-09T08:01:05.550Z,20.58
2024-05-09T08:02:09.457Z,18.92
2024-05-09T08:03:11.911Z,20.00
2024-05-09T08:04:14.182Z,19.85
2024-05-09T08:05:16.636Z,19.88
2024-05-09T08:06:19.075Z,20.35
2024-05-09T08:07:21.740Z,20.90
2024-05-09T08:08:24.037Z,20.23
2024-05-09T08:09:26.385Z,19.73
2024-05-09T08:10:29.353Z,19.77
2024-05-09T08:11:33.014Z,19.85
2024-05-09T08:12:35.287Z,19.90
2024-05-09T08:13:37.711Z,19.90
2024-05-09T08:14:39.996Z,20.30
2024-05-09T08:15:42.415Z,20.40
2024-05-09T08:16:45.224Z,18.88
2024-05-09T08:17:47.522Z,20.42
2024-05-09T08:18:50.037Z,20.73
2024-05-09T08:19:52.422Z,20.77
2024-05-09T08:20:54.680Z,19.70
2024-05-09T08:21:57.012Z,19.67
2024-05-09T08:22:59.210Z,19.98
2024-05-09T08:24:01.549Z,19.88
2024-05-09T08:25:03.909Z,19.85
2024-05-09T08:26:06.195Z,19.23
2024-05-09T08:27:08.372Z,20.25
2024-05-09T08:28:12.197Z,18.50
2024-05-09T08:29:14.858Z,19.88
2024-05-09T08:30:24.660Z,19.25
2024-05-09T08:31:32.115Z,18.67
2024-05-09T08:32:35.260Z,19.95
2024-05-09T08:33:37.897Z,19.77
2024-05-09T08:34:41.185Z,19.10
2024-05-09T08:35:43.427Z,19.08
2024-05-09T08:36:45.653Z,18.58
2024-05-09T08:37:49.989Z,19.23
2024-05-09T08:38:52.238Z,18.77
2024-05-09T08:39:54.422Z,18.30
2024-05-09T08:40:56.784Z,18.23
2024-05-09T08:42:02.370Z,17.63
2024-05-09T08:43:09.326Z,18.45
2024-05-09T08:44:13.067Z,18.35
2024-05-09T08:45:15.670Z,18.92
2024-05-09T08:46:19.098Z,19.77
2024-05-09T08:47:21.517Z,18.73
2024-05-09T08:48:24.645Z,18.17
2024-05-09T08:49:27.162Z,17.55
2024-05-09T08:50:36.560Z,19.00
2024-05-09T08:51:41.505Z,18.00
2024-05-09T08:52:44.139Z,16.60
2024-05-09T08:53:46.451Z,17.35
2024-05-09T08:54:48.695Z,17.63
2024-05-09T08:55:52.406Z,17.80
2024-05-09T08:56:54.636Z,18.08
2024-05-09T08:57:57.867Z,17.05
2024-05-09T08:59:01.934Z,16.65
2024-05-09T09:00:10.140Z,16.55
2024-05-09T09:01:15.263Z,16.40
2024-05-09T09:02:19.386Z,16.17
2024-05-09T09:03:25.258Z,17.25
2024-05-09T09:04:28.736Z,17.38
2024-05-09T09:05:32.287Z,16.80
2024-05-09T09:06:35.718Z,16.52
2024-05-09T09:07:39.990Z,16.60
2024-05-09T09:08:42.171Z,16.85
2024-05-09T09:09:46.178Z,16.67
2024-05-09T09:10:52.884Z,15.15
2024-05-09T09:11:55.291Z,16.50
2024-05-09T09:13:03.818Z,16.52
2024-05-09T09:14:06.111Z,16.92
2024-05-09T09:15:08.451Z,16.23
2024-05-09T09:16:10.807Z,16.60
2024-05-09T09:17:14.941Z,16.75
2024-05-09T09:18:18.856Z,17.13
2024-05-09T09:19:23.624Z,16.42
2024-05-09T09:20:34.137Z,16.25
2024-05-09T09:21:38.937Z,15.88
2024-05-09T09:22:41.146Z,16.08
2024-05-09T09:23:43.954Z,15.63
2024-05-09T09:24:46.236Z,16.40
2024-05-09T09:25:48.519Z,15.35
2024-05-09T09:26:51.165Z,16.17
2024-05-09T09:27:53.625Z,16.55
2024-05-09T09:29:01.073Z,16.42
2024-05-09T09:30:03.622Z,15.45
2024-05-09T09:31:06.683Z,16.95
2024-05-09T09:32:10.576Z,15.93
2024-05-09T09:33:13.072Z,17.08
2024-05-09T09:34:17.783Z,16.85
2024-05-09T09:35:20.202Z,16.10
2024-05-09T09:36:22.483Z,16.38
2024-05-09T09:37:32.450Z,16.45
2024-05-09T09:38:37.372Z,16.25
2024-05-09T09:39:42.055Z,14.98
2024-05-09T09:40:49.720Z,15.07
2024-05-09T09:41:53.433Z,15.05
2024-05-09T09:42:58.522Z,15.38
2024-05-09T09:44:02.387Z,15.68
2024-05-09T09:45:05.904Z,16.25
2024-05-09T09:46:12.318Z,15.77
2024-05-09T09:47:16.219Z,16.60
2024-05-09T09:48:20.689Z,16.17
2024-05-09T09:49:31.074Z,17.05
2024-05-09T09:50:36.121Z,16.20
2024-05-09T09:51:43.521Z,15.85
2024-05-09T09:52:46.977Z,16.90
2024-05-09T09:53:52.994Z,16.23
2024-05-09T09:54:57.599Z,16.45
2024-05-09T09:56:02.212Z,16.25
2024-05-09T09:57:05.247Z,15.85
2024-05-09T09:58:09.828Z,15.60
2024-05-09T09:59:15.187Z,16.40
2024-05-09T10:00:24.455Z,14.32
2024-05-09T10:01:34.694Z,16.02
2024-05-09T10:02:37.060Z,15.55
2024-05-09T10:03:39.563Z,16.13
2024-05-09T10:04:42.074Z,15.18
2024-05-09T10:05:47.035Z,14.77
2024-05-09T10:06:52.615Z,14.73
2024-05-09T10:07:55.666Z,13.57
2024-05-09T10:08:57.956Z,14.52
2024-05-09T10:10:00.245Z,13.27
2024-05-09T10:11:04.533Z,14.15
2024-05-09T10:12:13.982Z,13.98
2024-05-09T10:13:17.037Z,13.85
2024-05-09T10:14:22.497Z,15.70
2024-05-09T10:15:25.539Z,14.93
2024-05-09T10:16:31.976Z,14.40
2024-05-09T10:17:34.617Z,15.48
2024-05-09T10:18:41.735Z,15.40
2024-05-09T10:19:44.318Z,14.98
2024-05-09T10:20:47.080Z,16.30
2024-05-09T10:21:49.412Z,15.20
2024-05-09T10:22:51.724Z,14.80
2024-05-09T10:24:02.535Z,15.18
2024-05-09T10:25:07.534Z,15.23
2024-05-09T10:26:09.856Z,15.30
2024-05-09T10:27:12.050Z,14.50
2024-05-09T10:28:14.424Z,14.70
2024-05-09T10:29:18.729Z,15.68
2024-05-09T10:31:30.201Z,15.85
2024-05-09T10:32:39.027Z,15.32
2024-05-09T10:33:50.364Z,14.55
2024-05-09T10:35:08.837Z,15.07
2024-05-09T10:36:15.748Z,15.40
2024-05-09T10:37:18.210Z,15.13
2024-05-09T10:38:20.691Z,14.52
2024-05-09T10:39:23.105Z,14.30
2024-05-09T10:40:31.012Z,16.33
2024-05-09T10:41:34.554Z,15.73
2024-05-09T10:42:41.682Z,15.73
2024-05-09T10:43:43.881Z,15.50
2024-05-09T10:44:47.536Z,15.30
2024-05-09T10:45:49.781Z,16.13
2024-05-09T10:46:54.670Z,14.55
2024-05-09T10:47:57.442Z,14.82
2024-05-09T10:49:03.212Z,15.32
2024-05-09T10:50:15.747Z,14.82
2024-05-09T10:51:25.100Z,15.20
2024-05-09T10:52:27.297Z,15.25
2024-05-09T10:53:29.514Z,15.50
2024-05-09T10:54:38.490Z,15.68
2024-05-09T10:55:40.755Z,15.40
2024-05-09T10:56:42.961Z,16.08
2024-05-09T10:57:45.196Z,14.35
2024-05-09T10:58:48.183Z,15.45
2024-05-09T10:59:50.986Z,16.48
2024-05-09T11:00:58.894Z,15.20
2024-05-09T11:02:05.055Z,14.90
2024-05-09T11:03:10.461Z,15.85
2024-05-09T11:04:13.932Z,15.90
2024-05-09T11:05:16.595Z,14.75
2024-05-09T11:06:18.925Z,14.95
2024-05-09T11:07:21.624Z,15.82
2024-05-09T11:08:24.372Z,14.73
2024-05-09T11:09:26.900Z,15.15
2024-05-09T11:10:33.795Z,15.15
2024-05-09T11:11:36.865Z,14.32
2024-05-09T11:12:39.106Z,14.65
2024-05-09T11:13:41.650Z,14.63
2024-05-09T11:14:54.084Z,14.80
2024-05-09T11:15:56.646Z,15.80
2024-05-09T11:17:08.735Z,15.70
2024-05-09T11:19:31.299Z,14.65
2024-05-09T11:20:38.474Z,14.93
2024-05-09T11:21:41.090Z,14.95
2024-05-09T11:22:43.674Z,15.52
2024-05-09T11:23:46.098Z,15.18
2024-05-09T11:24:49.498Z,14.85
2024-05-09T11:25:52.203Z,15.40
2024-05-09T11:26:54.406Z,14.95
2024-05-09T11:28:02.466Z,15.27
2024-05-09T11:29:04.785Z,15.32
2024-05-09T11:30:27.041Z,15.75
2024-05-09T11:31:46.111Z,16.20
2024-05-09T11:32:49.220Z,15.38
2024-05-09T11:33:54.908Z,16.23
2024-05-09T11:34:57.202Z,15.43
2024-05-09T11:35:59.440Z,16.73
2024-05-09T11:37:01.878Z,15.75
2024-05-09T11:38:04.519Z,15.27
2024-05-09T11:39:07.396Z,15.48
2024-05-09T11:40:16.801Z,15.35
2024-05-09T11:41:23.790Z,16.35
2024-05-09T11:42:26.112Z,15.80
2024-05-09T11:43:28.345Z,16.10
2024-05-09T11:44:30.554Z,16.08
2024-05-09T11:45:33.139Z,15.88
2024-05-09T11:46:35.359Z,16.38
2024-05-09T11:47:39.924Z,15.00
2024-05-09T11:48:42.468Z,14.82
2024-05-09T11:49:44.745Z,13.60
2024-05-09T11:50:47.778Z,15.27
2024-05-09T11:51:50.033Z,14.63
2024-05-09T11:52:52.344Z,15.15
2024-05-09T11:53:54.550Z,13.95
2024-05-09T11:54:57.320Z,14.50
2024-05-09T11:55:59.634Z,14.60
2024-05-09T11:57:01.948Z,14.60
2024-05-09T11:58:04.750Z,15.60
2024-05-09T11:59:06.970Z,15.65
2024-05-09T12:00:14.759Z,15.35
2024-05-09T12:01:21.027Z,16.02
2024-05-09T12:02:24.428Z,14.65
2024-05-09T12:03:26.798Z,15.10
2024-05-09T12:04:29.148Z,14.82
2024-05-09T12:05:31.569Z,14.50
2024-05-09T12:06:33.934Z,13.40
2024-05-09T12:07:36.210Z,13.55
2024-05-09T12:08:39.100Z,14.50
2024-05-09T12:09:41.642Z,14.73
2024-05-09T12:10:44.079Z,14.35
2024-05-09T12:11:46.473Z,14.48
2024-05-09T12:12:48.718Z,14.32
2024-05-09T12:13:50.965Z,13.73
2024-05-09T12:14:53.166Z,14.70
2024-05-09T12:15:55.369Z,13.70
2024-05-09T12:17:00.198Z,13.70
2024-05-09T12:18:04.109Z,13.80
2024-05-09T12:19:06.780Z,15.23
2024-05-09T12:20:17.431Z,15.77
2024-05-09T12:21:27.472Z,14.77
2024-05-09T12:22:29.943Z,14.18
2024-05-09T12:23:32.211Z,13.15
2024-05-09T12:24:34.464Z,13.63
2024-05-09T12:25:37.458Z,15.18
2024-05-09T12:26:39.853Z,14.50
2024-05-09T12:27:42.244Z,15.23
2024-05-09T12:28:44.599Z,14.55
2024-05-09T12:29:47.651Z,14.93
2024-05-09T12:30:50.807Z,14.48
2024-05-09T12:31:53.114Z,14.50
2024-05-09T12:32:55.431Z,13.93
2024-05-09T12:33:57.752Z,14.02
2024-05-09T12:35:00.026Z,13.18
2024-05-09T12:36:02.740Z,14.52
2024-05-09T12:37:05.258Z,12.77
2024-05-09T12:38:07.563Z,12.25
2024-05-09T12:39:10.222Z,12.98
2024-05-09T12:40:22.453Z,11.55
2024-05-09T12:41:28.934Z,12.63
2024-05-09T12:42:33.285Z,11.35
2024-05-09T12:43:35.972Z,11.23
2024-05-09T12:44:38.222Z,11.50
2024-05-09T12:45:40.851Z,12.38
2024-05-09T12:46:43.481Z,12.57
2024-05-09T12:47:45.815Z,12.90
2024-05-09T12:48:48.183Z,11.95
2024-05-09T12:49:50.542Z,11.63
2024-05-09T12:50:54.948Z,11.07
2024-05-09T12:51:57.246Z,11.48
2024-05-09T12:52:59.542Z,11.75
2024-05-09T12:54:01.877Z,10.60
2024-05-09T12:55:04.471Z,10.07
2024-05-09T12:57:09.670Z,11.07
2024-05-09T12:58:12.331Z,11.95
2024-05-09T12:59:14.576Z,11.38
2024-05-09T13:00:23.817Z,11.63
2024-05-09T13:01:30.627Z,12.05
2024-05-09T13:02:33.060Z,11.65
2024-05-09T13:03:35.494Z,11.80
2024-05-09T13:04:38.061Z,12.27
2024-05-09T13:05:46.784Z,12.13
2024-05-09T13:06:49.605Z,11.40
2024-05-09T13:07:51.880Z,10.18
2024-05-09T13:08:54.110Z,10.38
2024-05-09T13:09:56.270Z,10.77
2024-05-09T13:10:58.995Z,10.88
2024-05-09T13:12:01.306Z,11.68
2024-05-09T13:13:03.684Z,11.60
2024-05-09T13:14:05.896Z,11.65
2024-05-09T13:15:08.275Z,11.23
2024-05-09T13:16:10.530Z,11.63
2024-05-09T13:17:12.905Z,10.23
2024-05-09T13:18:15.129Z,10.48
2024-05-09T13:19:17.580Z,11.55
2024-05-09T13:20:28.954Z,11.07
2024-05-09T13:21:35.211Z,10.30
2024-05-09T13:22:38.308Z,10.00
2024-05-09T13:23:40.468Z,10.90
2024-05-09T13:24:42.751Z,10.13
2024-05-09T13:25:45.031Z,9.95
2024-05-09T13:26:47.313Z,9.75
2024-05-09T13:27:49.689Z,10.57
2024-05-09T13:28:51.931Z,10.38
2024-05-09T13:29:57.289Z,10.50
2024-05-09T13:30:59.885Z,10.98
2024-05-09T13:32:02.230Z,11.82
2024-05-09T13:33:04.881Z,9.80
2024-05-09T13:34:07.515Z,9.82
2024-05-09T13:35:09.740Z,10.30
2024-05-09T13:36:11.955Z,10.73
2024-05-09T13:37:14.286Z,9.88
2024-05-09T13:38:16.551Z,10.02
2024-05-09T13:39:18.898Z,9.98
2024-05-09T13:40:29.958Z,10.48
2024-05-09T13:41:36.297Z,9.85
2024-05-09T13:42:38.534Z,10.43
2024-05-09T13:43:40.738Z,10.70
2024-05-09T13:44:42.962Z,11.45
2024-05-09T13:45:45.324Z,10.88
2024-05-09T13:46:47.979Z,10.05
2024-05-09T13:47:50.327Z,9.93
2024-05-09T13:48:52.752Z,9.35
2024-05-09T13:49:55.072Z,10.45